Time;durP1;ratioP1;P1;durP2;ratioP2;P2;SDS_P1;SDS_P2;PMS_P1;PMS_P2;Temp;Humidity;BMP_temperature;BMP_pressure;BME280_temperature;BME280_humidity;BME280_pressure;Samples;Min_cycle;Max_cycle;Signal;HPM_P1;HPM_P2
2023/09/12 05:05:30;;;;;;;19.55;17.58;;;;;;;;;;6312896;22;20061;-80
2023/09/12 05:07:55;;;;;;;18.95;16.98;;;;;;;;;;6370328;22;20087;-82
2023/09/12 05:10:21;;;;;;;18.92;17.13;;;;;;;;;;6340072;22;20377;-81
2023/09/12 05:12:46;;;;;;;19.38;17.58;;;;;;;;;;6340354;22;20006;-82
2023/09/12 05:15:12;;;;;;;21.20;19.05;;;;;;;;;;6339731;22;20014;-81
2023/09/12 05:17:37;;;;;;;22.17;19.75;;;;;;;;;;6312522;22;20042;-82
2023/09/12 05:20:07;;;;;;;27.85;24.77;;;;;;;;;;6339962;22;19999;-81
2023/09/12 05:22:32;;;;;;;22.35;19.88;;;;;;;;;;6340018;22;20086;-79
2023/09/12 05:24:57;;;;;;;21.15;18.75;;;;;;;;;;6339978;22;20030;-82
2023/09/12 05:27:23;;;;;;;21.85;19.65;;;;;;;;;;6339886;22;20010;-81
2023/09/12 05:29:48;;;;;;;20.98;18.60;;;;;;;;;;6339752;22;20406;-82
2023/09/12 05:32:15;;;;;;;23.38;19.10;;;;;;;;;;6312315;22;20329;-83
2023/09/12 05:34:41;;;;;;;20.75;18.70;;;;;;;;;;6340367;22;20009;-83
2023/09/12 05:37:06;;;;;;;20.00;17.83;;;;;;;;;;6340423;22;20003;-83
2023/09/12 05:39:32;;;;;;;20.50;18.33;;;;;;;;;;6312705;22;20334;-82
2023/09/12 05:41:57;;;;;;;22.25;18.58;;;;;;;;;;6340151;22;20014;-82
2023/09/12 05:44:23;;;;;;;21.92;18.38;;;;;;;;;;6339809;22;20299;-88
2023/09/12 05:46:48;;;;;;;20.10;17.98;;;;;;;;;;6340399;22;20014;-85
2023/09/12 05:49:15;;;;;;;21.23;19.05;;;;;;;;;;6340034;22;20067;-89
2023/09/12 05:51:42;;;;;;;19.75;17.75;;;;;;;;;;6340510;22;20433;-82
2023/09/12 05:54:08;;;;;;;19.45;17.58;;;;;;;;;;6339841;22;20006;-82
2023/09/12 05:56:34;;;;;;;19.77;17.77;;;;;;;;;;6339752;22;19998;-81
2023/09/12 05:58:59;;;;;;;20.55;18.08;;;;;;;;;;6339652;22;20006;-84
2023/09/12 06:01:25;;;;;;;19.52;17.52;;;;;;;;;;6339814;22;19999;-84
2023/09/12 06:03:50;;;;;;;19.85;17.85;;;;;;;;;;6340051;22;20003;-86
2023/09/12 06:06:16;;;;;;;19.33;17.42;;;;;;;;;;6312354;22;20433;-90
2023/09/12 06:08:41;;;;;;;20.30;17.38;;;;;;;;;;6313432;22;20002;-90
2023/09/12 06:11:06;;;;;;;19.67;17.67;;;;;;;;;;6313171;22;20006;-90
2023/09/12 06:13:32;;;;;;;21.25;19.15;;;;;;;;;;6313721;22;20321;-91
2023/09/12 06:15:58;;;;;;;20.73;17.95;;;;;;;;;;6313277;22;20011;-90
2023/09/12 06:18:24;;;;;;;20.38;18.30;;;;;;;;;;6313014;22;20125;-91
2023/09/12 06:20:49;;;;;;;21.08;18.85;;;;;;;;;;6313323;22;20368;-91
2023/09/12 06:23:15;;;;;;;20.48;18.48;;;;;;;;;;6313198;22;20031;-90
2023/09/12 06:25:40;;;;;;;17.73;15.98;;;;;;;;;;6313281;22;20066;-87
2023/09/12 06:28:09;;;;;;;19.75;17.63;;;;;;;;;;6339824;22;20056;-90
2023/09/12 06:30:34;;;;;;;18.02;16.25;;;;;;;;;;6339668;22;20018;-88
2023/09/12 06:32:59;;;;;;;17.52;15.77;;;;;;;;;;6339839;22;20002;-86
2023/09/12 06:35:25;;;;;;;18.25;16.33;;;;;;;;;;6339957;22;20006;-88
2023/09/12 06:37:50;;;;;;;21.38;16.27;;;;;;;;;;6312370;22;20003;-88
2023/09/12 06:40:16;;;;;;;18.85;17.05;;;;;;;;;;6340431;22;20081;-89
2023/09/12 06:42:42;;;;;;;19.52;16.98;;;;;;;;;;6340257;22;19998;-90
2023/09/12 06:45:08;;;;;;;18.77;16.65;;;;;;;;;;6340294;22;20369;-85
2023/09/12 06:47:33;;;;;;;19.17;17.15;;;;;;;;;;6339991;22;19999;-87
2023/09/12 06:49:59;;;;;;;18.45;16.40;;;;;;;;;;6339987;22;20002;-90
2023/09/12 06:52:24;;;;;;;20.77;17.80;;;;;;;;;;6340376;22;20003;-88
2023/09/12 06:54:50;;;;;;;18.88;16.85;;;;;;;;;;6312098;22;20140;-89
2023/09/12 06:57:15;;;;;;;17.85;16.00;;;;;;;;;;6312412;22;20007;-90
2023/09/12 06:59:41;;;;;;;21.02;18.27;;;;;;;;;;6339958;22;20010;-89
2023/09/12 07:02:07;;;;;;;19.30;17.30;;;;;;;;;;6339452;22;19998;-87
2023/09/12 16:36:08;;;;;;;23.25;20.85;;;;;;;;;;6226333;23;20032;-93
2023/09/12 16:38:34;;;;;;;22.92;20.50;;;;;;;;;;6250112;22;20435;-87
2023/09/12 16:41:00;;;;;;;21.67;19.58;;;;;;;;;;6294984;22;20022;-86
2023/09/12 16:43:25;;;;;;;21.17;18.90;;;;;;;;;;6310102;22;19999;-89
2023/09/12 16:45:51;;;;;;;21.48;18.92;;;;;;;;;;6281758;22;20026;-88
2023/09/12 16:48:17;;;;;;;21.52;19.23;;;;;;;;;;6310154;22;20063;-91
2023/09/12 16:50:46;;;;;;;21.70;19.40;;;;;;;;;;6309969;22;20397;-95
2023/09/12 16:53:11;;;;;;;23.35;19.98;;;;;;;;;;6309732;22;20066;-91
2023/09/12 16:55:37;;;;;;;21.52;19.35;;;;;;;;;;6308192;22;20037;-90
2023/09/12 16:58:03;;;;;;;21.38;19.20;;;;;;;;;;6309296;22;20007;-91
2023/09/12 17:00:28;;;;;;;23.10;20.60;;;;;;;;;;6309514;22;19995;-88
2023/09/12 17:02:53;;;;;;;22.27;20.08;;;;;;;;;;6309079;22;19999;-88
2023/09/12 17:05:22;;;;;;;23.15;20.65;;;;;;;;;;6309149;22;20003;-90
2023/09/12 17:07:48;;;;;;;22.60;20.25;;;;;;;;;;6282140;22;20428;-90
2023/09/12 17:10:14;;;;;;;22.23;19.73;;;;;;;;;;6309527;22;20003;-90
2023/09/12 17:12:39;;;;;;;22.05;19.17;;;;;;;;;;6309609;22;19999;-87
2023/09/12 17:15:11;;;;;;;24.98;22.48;;;;;;;;;;6309958;22;20007;-90
2023/09/12 17:17:38;;;;;;;29.08;26.00;;;;;;;;;;6313783;22;20010;-90
2023/09/12 17:20:04;;;;;;;24.35;21.95;;;;;;;;;;6312173;22;20010;-91
2023/09/12 17:22:29;;;;;;;23.38;21.00;;;;;;;;;;6318989;22;20013;-91
2023/09/12 17:24:57;;;;;;;20.45;18.35;;;;;;;;;;6324946;22;20415;-92
2023/09/12 17:27:23;;;;;;;20.58;18.67;;;;;;;;;;6323048;22;20008;-91
2023/09/12 17:29:48;;;;;;;21.38;18.92;;;;;;;;;;6323962;22;20453;-95
2023/09/12 17:32:14;;;;;;;21.67;19.55;;;;;;;;;;6292377;22;20007;-89
2023/09/12 17:34:43;;;;;;;23.38;20.70;;;;;;;;;;6312672;22;20007;-92
2023/09/12 17:37:10;;;;;;;21.95;19.55;;;;;;;;;;6312290;22;20066;-89
2023/09/12 17:39:36;;;;;;;22.13;19.92;;;;;;;;;;6283400;22;20003;-91
2023/09/12 17:42:03;;;;;;;19.55;17.65;;;;;;;;;;6312324;22;20038;-91
2023/09/12 17:44:29;;;;;;;21.67;19.58;;;;;;;;;;6282441;22;20025;-88
2023/09/12 17:46:54;;;;;;;19.98;17.88;;;;;;;;;;6311712;22;20078;-89
2023/09/12 17:49:20;;;;;;;22.83;19.88;;;;;;;;;;6310175;22;20004;-93
2023/09/12 17:51:45;;;;;;;21.58;19.38;;;;;;;;;;6310856;22;19999;-93
2023/09/12 17:54:11;;;;;;;20.13;18.13;;;;;;;;;;6283018;22;20011;-89
2023/09/12 17:56:37;;;;;;;21.52;18.92;;;;;;;;;;6309722;22;19995;-90
2023/09/12 17:59:03;;;;;;;21.45;19.33;;;;;;;;;;6309849;22;20045;-92
2023/09/12 18:01:29;;;;;;;21.92;19.77;;;;;;;;;;6314681;22;20003;-86
2023/09/12 18:03:57;;;;;;;22.10;19.85;;;;;;;;;;6318942;22;20067;-94
2023/09/12 18:06:23;;;;;;;23.42;18.60;;;;;;;;;;6311458;22;20493;-86
2023/09/12 18:08:50;;;;;;;22.17;19.92;;;;;;;;;;6312567;22;20010;-86
2023/09/12 18:11:15;;;;;;;20.83;18.73;;;;;;;;;;6320839;22;19999;-94
2023/09/12 18:13:41;;;;;;;25.02;21.50;;;;;;;;;;6310443;22;19995;-91
2023/09/12 18:16:07;;;;;;;26.55;23.77;;;;;;;;;;6310911;22;20391;-91
2023/09/12 18:18:32;;;;;;;24.23;21.88;;;;;;;;;;6308979;22;20003;-87
2023/09/12 18:20:58;;;;;;;22.45;20.20;;;;;;;;;;6308976;22;20002;-88
2023/09/12 18:23:23;;;;;;;23.08;20.67;;;;;;;;;;6308448;22;20472;-87
2023/09/12 18:25:50;;;;;;;25.73;22.95;;;;;;;;;;6308787;22;19999;-88
2023/09/12 18:28:37;;;;;;;23.05;19.13;;;;;;;;;;6308519;22;20003;-89
2023/09/12 20:44:23;;;;;;;21.75;19.42;;;;;;;;;;6354535;22;19920;-87
2023/09/12 20:46:48;;;;;;;24.88;21.48;;;;;;;;;;6340320;22;20010;-90
2023/09/12 20:49:14;;;;;;;24.15;21.65;;;;;;;;;;6341170;22;20030;-90
2023/09/12 20:51:43;;;;;;;23.25;20.95;;;;;;;;;;6326795;22;20006;-91
2023/09/12 20:54:10;;;;;;;21.65;19.38;;;;;;;;;;6309930;22;20088;-93
2023/09/12 20:56:40;;;;;;;21.75;19.67;;;;;;;;;;6311112;22;20330;-91
2023/09/12 20:59:05;;;;;;;21.48;19.30;;;;;;;;;;6308978;22;20008;-90
2023/09/12 21:01:32;;;;;;;21.17;19.05;;;;;;;;;;6309627;22;20003;-91
2023/09/12 21:03:57;;;;;;;20.10;18.00;;;;;;;;;;6308305;22;20003;-94
2023/09/12 21:06:23;;;;;;;21.67;18.27;;;;;;;;;;6309534;22;20104;-96
2023/09/12 21:08:50;;;;;;;21.00;18.95;;;;;;;;;;6310493;22;20010;-91
2023/09/12 21:11:18;;;;;;;21.00;18.73;;;;;;;;;;6312936;22;20002;-90
2023/09/12 21:13:44;;;;;;;21.10;18.95;;;;;;;;;;6309932;22;19999;-91
2023/09/12 21:16:10;;;;;;;21.80;19.52;;;;;;;;;;6309682;22;20034;-92
2023/09/12 21:18:35;;;;;;;20.75;18.52;;;;;;;;;;6314310;22;20031;-90
2023/09/12 21:21:01;;;;;;;21.40;19.17;;;;;;;;;;6313796;22;20003;-89
2023/09/12 21:23:29;;;;;;;21.67;19.42;;;;;;;;;;6313018;22;20307;-89
2023/09/12 21:25:57;;;;;;;22.95;20.48;;;;;;;;;;6319271;22;20109;-90
2023/09/12 21:28:22;;;;;;;21.85;19.75;;;;;;;;;;6318585;22;20003;-91
2023/09/12 21:30:50;;;;;;;21.88;19.30;;;;;;;;;;6311560;22;20080;-91
2023/09/12 21:33:16;;;;;;;21.05;18.98;;;;;;;;;;6318444;22;20034;-94
2023/09/12 21:35:41;;;;;;;20.33;18.38;;;;;;;;;;6308323;22;20322;-92
2023/09/12 21:38:07;;;;;;;20.15;18.25;;;;;;;;;;6308268;22;20007;-92
2023/09/12 21:40:32;;;;;;;20.95;18.77;;;;;;;;;;6308266;22;20003;-92
2023/09/12 21:43:00;;;;;;;21.42;19.33;;;;;;;;;;6308483;22;20019;-92
2023/09/12 21:45:26;;;;;;;21.73;19.33;;;;;;;;;;6326054;22;20014;-92
2023/09/12 21:47:52;;;;;;;20.38;18.17;;;;;;;;;;6313055;22;20003;-92
2023/09/12 21:50:18;;;;;;;23.25;19.83;;;;;;;;;;6319442;22;20015;-94
2023/09/12 21:52:43;;;;;;;18.67;16.98;;;;;;;;;;6314148;22;20441;-93
2023/09/12 21:55:09;;;;;;;20.27;18.17;;;;;;;;;;6313047;22;20003;-89
